Paynesville, Missouri
Current Conditions -  °F | °C
As of 4:15 AM on Friday 24 Oct 2014 (Local Time) from KPPQ Reporting Station
Clear Clear  
Wind Chill: 12°   Ceiling: Unl
Heat Index: 12°   Visibility: 10mi
Dew Point: 11°   Wind: 5mph
Humidity: 90%   Direction: 270°W
Pressure: 30.09"   Gusts: NA
Location:  39.3277°N, 90.9481°W
Report Text: KPPQ 240915Z AUTO 27004KT 10SM CLR 12/11 A3009 RMK AO2 T01240108
Loading
Personal Weather Stations






























Interactive Weather Map
Tropical Storm Tracking
New forecast layout! Learn more

10-Day Weather Forecast

Advertisements
Track Severe Weather on mobile